sensor_id;sensor_type;location;lat;lon;timestamp;pressure;altitude;pressure_sealevel;temperature;humidity
73240;BME280;61452;40.054;4.110;2023-07-29T00:00:50;101527.00;;;27.58;100.00
73240;BME280;61452;40.054;4.110;2023-07-29T00:05:53;101534.88;;;27.59;100.00
73240;BME280;61452;40.054;4.110;2023-07-29T00:10:55;101531.38;;;27.59;100.00
73240;BME280;61452;40.054;4.110;2023-07-29T00:15:58;101528.16;;;27.55;100.00
73240;BME280;61452;40.054;4.110;2023-07-29T00:21:00;101529.31;;;27.53;100.00
73240;BME280;61452;40.054;4.110;2023-07-29T00:26:02;101523.91;;;27.53;100.00
73240;BME280;61452;40.054;4.110;2023-07-29T00:31:04;101522.91;;;27.54;100.00
73240;BME280;61452;40.054;4.110;2023-07-29T00:36:09;101523.91;;;27.53;100.00
73240;BME280;61452;40.054;4.110;2023-07-29T00:41:11;101511.47;;;27.52;100.00
73240;BME280;61452;40.054;4.110;2023-07-29T00:46:16;101506.22;;;27.50;100.00
73240;BME280;61452;40.054;4.110;2023-07-29T00:51:18;101505.38;;;27.50;100.00
73240;BME280;61452;40.054;4.110;2023-07-29T00:56:21;101499.97;;;27.50;100.00
73240;BME280;61452;40.054;4.110;2023-07-29T01:01:24;101493.91;;;27.48;100.00
73240;BME280;61452;40.054;4.110;2023-07-29T01:06:32;101489.88;;;27.44;100.00
73240;BME280;61452;40.054;4.110;2023-07-29T01:11:58;101502.34;;;27.45;100.00
73240;BME280;61452;40.054;4.110;2023-07-29T01:17:08;101498.66;;;27.46;100.00
73240;BME280;61452;40.054;4.110;2023-07-29T01:22:11;101496.25;;;27.43;100.00
73240;BME280;61452;40.054;4.110;2023-07-29T01:27:15;101495.25;;;27.44;100.00
73240;BME280;61452;40.054;4.110;2023-07-29T01:32:27;101497.13;;;27.43;100.00
73240;BME280;61452;40.054;4.110;2023-07-29T01:37:35;101494.56;;;27.42;100.00
73240;BME280;61452;40.054;4.110;2023-07-29T01:42:40;101496.25;;;27.43;100.00
73240;BME280;61452;40.054;4.110;2023-07-29T01:47:43;101497.94;;;27.44;100.00
73240;BME280;61452;40.054;4.110;2023-07-29T01:52:45;101480.94;;;27.43;100.00
73240;BME280;61452;40.054;4.110;2023-07-29T01:57:48;101486.81;;;27.47;100.00
73240;BME280;61452;40.054;4.110;2023-07-29T02:02:50;101483.13;;;27.48;100.00
73240;BME280;61452;40.054;4.110;2023-07-29T02:07:53;101485.81;;;27.48;100.00
73240;BME280;61452;40.054;4.110;2023-07-29T02:12:55;101485.16;;;27.46;100.00
73240;BME280;61452;40.054;4.110;2023-07-29T02:17:57;101486.00;;;27.46;100.00
73240;BME280;61452;40.054;4.110;2023-07-29T02:23:01;101480.63;;;27.46;100.00
73240;BME280;61452;40.054;4.110;2023-07-29T02:28:04;101481.09;;;27.42;100.00
73240;BME280;61452;40.054;4.110;2023-07-29T02:33:06;101474.22;;;27.39;100.00
73240;BME280;61452;40.054;4.110;2023-07-29T02:38:08;101476.56;;;27.42;100.00
73240;BME280;61452;40.054;4.110;2023-07-29T02:43:11;101479.06;;;27.35;100.00
73240;BME280;61452;40.054;4.110;2023-07-29T02:48:13;101473.69;;;27.35;100.00
73240;BME280;61452;40.054;4.110;2023-07-29T02:53:15;101477.56;;;27.33;100.00
73240;BME280;61452;40.054;4.110;2023-07-29T02:58:17;101478.56;;;27.32;100.00
73240;BME280;61452;40.054;4.110;2023-07-29T03:03:19;101469.66;;;27.31;100.00
73240;BME280;61452;40.054;4.110;2023-07-29T03:08:22;101473.50;;;27.29;100.00
73240;BME280;61452;40.054;4.110;2023-07-29T03:13:24;101480.59;;;27.22;100.00
73240;BME280;61452;40.054;4.110;2023-07-29T03:18:27;101486.31;;;27.27;100.00
73240;BME280;61452;40.054;4.110;2023-07-29T03:23:30;101494.22;;;27.28;100.00
73240;BME280;61452;40.054;4.110;2023-07-29T03:28:33;101493.72;;;27.25;100.00
73240;BME280;61452;40.054;4.110;2023-07-29T03:33:35;101492.88;;;27.24;100.00
73240;BME280;61452;40.054;4.110;2023-07-29T03:38:37;101491.53;;;27.20;100.00
73240;BME280;61452;40.054;4.110;2023-07-29T03:43:43;101501.47;;;27.20;100.00
73240;BME280;61452;40.054;4.110;2023-07-29T03:48:45;101500.09;;;27.24;100.00
73240;BME280;61452;40.054;4.110;2023-07-29T03:53:47;101507.03;;;27.26;100.00
73240;BME280;61452;40.054;4.110;2023-07-29T03:58:49;101513.06;;;27.20;100.00
73240;BME280;61452;40.054;4.110;2023-07-29T04:03:52;101510.22;;;27.22;100.00
73240;BME280;61452;40.054;4.110;2023-07-29T04:08:54;101514.75;;;27.13;100.00
73240;BME280;61452;40.054;4.110;2023-07-29T04:13:57;101515.09;;;27.18;100.00
73240;BME280;61452;40.054;4.110;2023-07-29T04:18:59;101509.69;;;27.18;100.00
73240;BME280;61452;40.054;4.110;2023-07-29T04:24:01;101504.47;;;27.17;100.00
73240;BME280;61452;40.054;4.110;2023-07-29T04:29:03;101504.31;;;27.18;100.00
73240;BME280;61452;40.054;4.110;2023-07-29T04:34:05;101512.06;;;27.21;100.00
73240;BME280;61452;40.054;4.110;2023-07-29T04:39:08;101507.16;;;27.17;100.00
73240;BME280;61452;40.054;4.110;2023-07-29T04:44:11;101516.44;;;27.14;100.00
73240;BME280;61452;40.054;4.110;2023-07-29T04:49:13;101506.81;;;27.12;100.00
73240;BME280;61452;40.054;4.110;2023-07-29T04:54:15;101505.66;;;27.14;100.00
73240;BME280;61452;40.054;4.110;2023-07-29T04:59:17;101518.44;;;27.12;100.00
73240;BME280;61452;40.054;4.110;2023-07-29T05:04:19;101524.97;;;27.10;100.00
73240;BME280;61452;40.054;4.110;2023-07-29T05:09:22;101531.56;;;27.07;100.00
73240;BME280;61452;40.054;4.110;2023-07-29T05:14:26;101530.88;;;27.05;100.00
73240;BME280;61452;40.054;4.110;2023-07-29T05:19:29;101540.78;;;27.05;100.00
73240;BME280;61452;40.054;4.110;2023-07-29T05:24:31;101544.03;;;27.08;100.00
73240;BME280;61452;40.054;4.110;2023-07-29T05:29:33;101553.94;;;27.16;100.00
73240;BME280;61452;40.054;4.110;2023-07-29T05:34:35;101549.41;;;27.16;100.00
73240;BME280;61452;40.054;4.110;2023-07-29T05:39:37;101544.72;;;27.18;100.00
73240;BME280;61452;40.054;4.110;2023-07-29T05:44:39;101557.50;;;27.16;100.00
73240;BME280;61452;40.054;4.110;2023-07-29T05:49:42;101559.28;;;27.00;100.00
73240;BME280;61452;40.054;4.110;2023-07-29T05:54:44;101563.53;;;27.02;100.00
73240;BME280;61452;40.054;4.110;2023-07-29T05:59:46;101567.72;;;27.05;100.00
73240;BME280;61452;40.054;4.110;2023-07-29T06:04:49;101575.69;;;27.14;100.00
73240;BME280;61452;40.054;4.110;2023-07-29T06:09:51;101568.13;;;27.18;100.00
73240;BME280;61452;40.054;4.110;2023-07-29T06:14:55;101573.84;;;27.23;100.00
73240;BME280;61452;40.054;4.110;2023-07-29T06:19:57;101580.44;;;27.28;100.00
73240;BME280;61452;40.054;4.110;2023-07-29T06:25:00;101586.66;;;27.29;100.00
73240;BME280;61452;40.054;4.110;2023-07-29T06:30:02;101577.59;;;27.30;100.00
73240;BME280;61452;40.054;4.110;2023-07-29T06:35:04;101580.97;;;27.32;100.00
73240;BME280;61452;40.054;4.110;2023-07-29T06:40:07;101581.81;;;27.32;100.00
73240;BME280;61452;40.054;4.110;2023-07-29T06:45:10;101583.31;;;27.35;100.00
73240;BME280;61452;40.054;4.110;2023-07-29T06:50:12;101588.41;;;27.38;100.00
73240;BME280;61452;40.054;4.110;2023-07-29T06:55:14;101590.09;;;27.39;100.00
73240;BME280;61452;40.054;4.110;2023-07-29T07:00:16;101585.53;;;27.40;100.00
73240;BME280;61452;40.054;4.110;2023-07-29T07:05:19;101588.22;;;27.40;100.00
73240;BME280;61452;40.054;4.110;2023-07-29T07:10:21;101588.03;;;27.41;100.00
73240;BME280;61452;40.054;4.110;2023-07-29T07:15:23;101578.31;;;27.40;100.00
73240;BME280;61452;40.054;4.110;2023-07-29T07:20:25;101579.81;;;27.43;100.00
73240;BME280;61452;40.054;4.110;2023-07-29T07:25:28;101582.19;;;27.46;100.00
73240;BME280;61452;40.054;4.110;2023-07-29T07:30:30;101575.09;;;27.45;100.00
73240;BME280;61452;40.054;4.110;2023-07-29T07:35:32;101573.25;;;27.45;100.00
73240;BME280;61452;40.054;4.110;2023-07-29T07:40:35;101568.72;;;27.46;100.00
73240;BME280;61452;40.054;4.110;2023-07-29T07:45:37;101562.47;;;27.45;100.00
73240;BME280;61452;40.054;4.110;2023-07-29T07:50:39;101563.31;;;27.46;100.00
73240;BME280;61452;40.054;4.110;2023-07-29T07:55:42;101563.31;;;27.46;100.00
73240;BME280;61452;40.054;4.110;2023-07-29T08:00:44;101557.94;;;27.46;100.00
73240;BME280;61452;40.054;4.110;2023-07-29T08:05:46;101566.03;;;27.46;100.00
73240;BME280;61452;40.054;4.110;2023-07-29T08:10:49;101567.69;;;27.47;100.00
73240;BME280;61452;40.054;4.110;2023-07-29T08:15:52;101573.06;;;27.47;100.00
73240;BME280;61452;40.054;4.110;2023-07-29T08:20:56;101568.53;;;27.47;100.00
73240;BME280;61452;40.054;4.110;2023-07-29T08:26:03;101563.13;;;27.47;100.00
73240;BME280;61452;40.054;4.110;2023-07-29T08:31:08;101564.97;;;27.47;100.00
73240;BME280;61452;40.054;4.110;2023-07-29T08:36:11;101563.97;;;27.48;100.00
73240;BME280;61452;40.054;4.110;2023-07-29T08:41:26;101565.81;;;27.47;100.00
73240;BME280;61452;40.054;4.110;2023-07-29T08:46:31;101560.44;;;27.47;100.00
73240;BME280;61452;40.054;4.110;2023-07-29T08:51:34;101555.75;;;27.49;100.00
73240;BME280;61452;40.054;4.110;2023-07-29T08:56:37;101564.81;;;27.48;100.00
73240;BME280;61452;40.054;4.110;2023-07-29T09:01:39;101561.13;;;27.49;100.00
73240;BME280;61452;40.054;4.110;2023-07-29T09:06:43;101566.53;;;27.49;100.00
73240;BME280;61452;40.054;4.110;2023-07-29T09:11:46;101553.03;;;27.49;100.00
73240;BME280;61452;40.054;4.110;2023-07-29T09:16:48;101553.88;;;27.50;100.00
73240;BME280;61452;40.054;4.110;2023-07-29T09:21:51;101555.75;;;27.49;100.00
73240;BME280;61452;40.054;4.110;2023-07-29T09:26:53;101557.59;;;27.49;100.00
73240;BME280;61452;40.054;4.110;2023-07-29T09:32:17;101559.44;;;27.48;100.00
73240;BME280;61452;40.054;4.110;2023-07-29T09:37:23;101565.50;;;27.50;100.00
73240;BME280;61452;40.054;4.110;2023-07-29T09:42:25;101560.00;;;27.52;100.00
73240;BME280;61452;40.054;4.110;2023-07-29T09:47:27;101565.03;;;27.55;100.00
73240;BME280;61452;40.054;4.110;2023-07-29T09:52:31;101559.81;;;27.53;100.00
73240;BME280;61452;40.054;4.110;2023-07-29T09:57:33;101566.56;;;27.57;100.00
73240;BME280;61452;40.054;4.110;2023-07-29T10:02:36;101556.97;;;27.55;100.00
73240;BME280;61452;40.054;4.110;2023-07-29T10:07:39;101566.88;;;27.54;100.00
73240;BME280;61452;40.054;4.110;2023-07-29T10:12:42;101557.97;;;27.54;100.00
73240;BME280;61452;40.054;4.110;2023-07-29T10:17:46;101564.19;;;27.54;100.00
73240;BME280;61452;40.054;4.110;2023-07-29T10:22:51;101566.72;;;27.56;100.00
73240;BME280;61452;40.054;4.110;2023-07-29T10:28:06;101564.19;;;27.54;100.00
73240;BME280;61452;40.054;4.110;2023-07-29T10:33:09;101555.09;;;27.55;100.00
73240;BME280;61452;40.054;4.110;2023-07-29T10:38:12;101559.66;;;27.55;100.00
73240;BME280;61452;40.054;4.110;2023-07-29T10:43:20;101542.63;;;27.54;100.00
73240;BME280;61452;40.054;4.110;2023-07-29T10:53:37;101538.78;;;27.57;100.00
73240;BME280;61452;40.054;4.110;2023-07-29T10:58:43;101537.94;;;27.56;100.00
73240;BME280;61452;40.054;4.110;2023-07-29T11:14:55;101529.50;;;27.59;100.00
73240;BME280;61452;40.054;4.110;2023-07-29T11:20:00;101528.69;;;27.59;100.00
73240;BME280;61452;40.054;4.110;2023-07-29T11:25:03;101533.88;;;27.60;100.00
73240;BME280;61452;40.054;4.110;2023-07-29T11:30:09;101534.56;;;27.62;100.00
73240;BME280;61452;40.054;4.110;2023-07-29T11:35:17;101531.19;;;27.60;100.00
73240;BME280;61452;40.054;4.110;2023-07-29T11:40:21;101527.63;;;27.60;100.00
73240;BME280;61452;40.054;4.110;2023-07-29T11:45:23;101527.47;;;27.61;100.00
73240;BME280;61452;40.054;4.110;2023-07-29T11:50:36;101529.19;;;27.62;100.00
73240;BME280;61452;40.054;4.110;2023-07-29T11:55:38;101532.72;;;27.63;100.00
73240;BME280;61452;40.054;4.110;2023-07-29T12:00:40;101537.25;;;27.62;100.00
73240;BME280;61452;40.054;4.110;2023-07-29T12:05:43;101531.19;;;27.60;100.00
73240;BME280;61452;40.054;4.110;2023-07-29T12:10:46;101526.47;;;27.62;100.00
73240;BME280;61452;40.054;4.110;2023-07-29T12:15:48;101524.78;;;27.61;100.00
73240;BME280;61452;40.054;4.110;2023-07-29T12:20:53;101518.56;;;27.61;100.00
73240;BME280;61452;40.054;4.110;2023-07-29T12:25:59;101521.09;;;27.62;100.00
73240;BME280;61452;40.054;4.110;2023-07-29T12:31:01;101506.75;;;27.62;100.00
73240;BME280;61452;40.054;4.110;2023-07-29T12:36:09;101501.06;;;27.65;100.00
73240;BME280;61452;40.054;4.110;2023-07-29T12:41:12;101491.09;;;27.65;100.00
73240;BME280;61452;40.054;4.110;2023-07-29T12:46:14;101496.47;;;27.65;100.00
73240;BME280;61452;40.054;4.110;2023-07-29T12:51:16;101497.69;;;27.71;100.00
73240;BME280;61452;40.054;4.110;2023-07-29T12:56:18;101500.53;;;27.69;100.00
73240;BME280;61452;40.054;4.110;2023-07-29T13:01:20;101491.59;;;27.69;100.00
73240;BME280;61452;40.054;4.110;2023-07-29T13:06:23;101492.44;;;27.69;100.00
73240;BME280;61452;40.054;4.110;2023-07-29T13:11:25;101491.44;;;27.70;100.00
73240;BME280;61452;40.054;4.110;2023-07-29T13:16:31;101487.91;;;27.70;100.00
73240;BME280;61452;40.054;4.110;2023-07-29T13:21:33;101494.13;;;27.70;100.00
73240;BME280;61452;40.054;4.110;2023-07-29T13:26:35;101485.69;;;27.73;100.00
73240;BME280;61452;40.054;4.110;2023-07-29T13:31:38;101477.59;;;27.73;100.00
73240;BME280;61452;40.054;4.110;2023-07-29T13:36:40;101472.22;;;27.73;100.00
73240;BME280;61452;40.054;4.110;2023-07-29T13:41:42;101460.75;;;27.71;100.00
73240;BME280;61452;40.054;4.110;2023-07-29T13:46:44;101459.75;;;27.72;100.00
73240;BME280;61452;40.054;4.110;2023-07-29T13:51:47;101463.44;;;27.71;100.00
73240;BME280;61452;40.054;4.110;2023-07-29T13:56:49;101457.25;;;27.71;100.00
73240;BME280;61452;40.054;4.110;2023-07-29T14:01:51;101449.16;;;27.71;100.00
73240;BME280;61452;40.054;4.110;2023-07-29T14:06:53;101448.31;;;27.70;100.00
73240;BME280;61452;40.054;4.110;2023-07-29T14:12:00;101439.38;;;27.70;100.00
73240;BME280;61452;40.054;4.110;2023-07-29T14:17:02;101441.06;;;27.71;100.00
73240;BME280;61452;40.054;4.110;2023-07-29T14:22:05;101435.66;;;27.71;100.00
73240;BME280;61452;40.054;4.110;2023-07-29T14:27:07;101439.03;;;27.73;100.00
73240;BME280;61452;40.054;4.110;2023-07-29T14:32:09;101432.78;;;27.72;100.00
73240;BME280;61452;40.054;4.110;2023-07-29T14:37:11;101440.03;;;27.72;100.00
73240;BME280;61452;40.054;4.110;2023-07-29T14:42:13;101439.19;;;27.71;100.00
73240;BME280;61452;40.054;4.110;2023-07-29T14:47:16;101430.09;;;27.72;100.00
73240;BME280;61452;40.054;4.110;2023-07-29T14:52:18;101439.19;;;27.71;100.00
73240;BME280;61452;40.054;4.110;2023-07-29T14:57:21;101426.53;;;27.72;100.00
73240;BME280;61452;40.054;4.110;2023-07-29T15:02:23;101427.38;;;27.72;100.00
73240;BME280;61452;40.054;4.110;2023-07-29T15:07:25;101426.38;;;27.73;100.00
73240;BME280;61452;40.054;4.110;2023-07-29T15:12:28;101424.69;;;27.72;100.00
73240;BME280;61452;40.054;4.110;2023-07-29T15:17:30;101414.59;;;27.74;100.00
73240;BME280;61452;40.054;4.110;2023-07-29T15:22:32;101415.44;;;27.75;100.00
73240;BME280;61452;40.054;4.110;2023-07-29T15:27:34;101426.22;;;27.75;100.00
73240;BME280;61452;40.054;4.110;2023-07-29T15:32:36;101413.59;;;27.75;100.00
73240;BME280;61452;40.054;4.110;2023-07-29T15:37:39;101413.41;;;27.77;100.00
73240;BME280;61452;40.054;4.110;2023-07-29T15:42:41;101407.19;;;27.76;100.00
73240;BME280;61452;40.054;4.110;2023-07-29T15:47:43;101400.94;;;27.76;100.00
73240;BME280;61452;40.054;4.110;2023-07-29T15:52:45;101392.66;;;27.77;100.00
73240;BME280;61452;40.054;4.110;2023-07-29T15:57:49;101399.94;;;27.77;100.00
73240;BME280;61452;40.054;4.110;2023-07-29T16:02:51;101397.88;;;27.79;100.00
73240;BME280;61452;40.054;4.110;2023-07-29T16:07:53;101392.34;;;27.81;100.00
73240;BME280;61452;40.054;4.110;2023-07-29T16:12:58;101383.56;;;27.78;100.00
73240;BME280;61452;40.054;4.110;2023-07-29T16:18:01;101387.94;;;27.80;100.00
73240;BME280;61452;40.054;4.110;2023-07-29T16:23:04;101388.78;;;27.80;100.00
73240;BME280;61452;40.054;4.110;2023-07-29T16:28:10;101390.66;;;27.80;100.00
73240;BME280;61452;40.054;4.110;2023-07-29T16:33:12;101384.41;;;27.79;100.00
73240;BME280;61452;40.054;4.110;2023-07-29T16:38:14;101378.84;;;27.81;100.00
73240;BME280;61452;40.054;4.110;2023-07-29T16:43:16;101370.75;;;27.81;100.00
73240;BME280;61452;40.054;4.110;2023-07-29T16:48:19;101373.28;;;27.82;100.00
73240;BME280;61452;40.054;4.110;2023-07-29T16:53:21;101380.19;;;27.85;100.00
73240;BME280;61452;40.054;4.110;2023-07-29T16:58:23;101377.47;;;27.85;100.00
73240;BME280;61452;40.054;4.110;2023-07-29T17:03:25;101382.53;;;27.88;100.00
73240;BME280;61452;40.054;4.110;2023-07-29T17:08:27;101388.94;;;27.87;100.00
73240;BME280;61452;40.054;4.110;2023-07-29T17:13:30;101387.94;;;27.88;100.00
73240;BME280;61452;40.054;4.110;2023-07-29T17:18:32;101395.19;;;27.87;100.00
73240;BME280;61452;40.054;4.110;2023-07-29T17:23:34;101392.31;;;27.89;100.00
73240;BME280;61452;40.054;4.110;2023-07-29T17:28:37;101392.31;;;27.89;100.00
73240;BME280;61452;40.054;4.110;2023-07-29T17:33:39;101395.88;;;27.89;100.00
73240;BME280;61452;40.054;4.110;2023-07-29T17:38:42;101395.66;;;27.91;100.00
73240;BME280;61452;40.054;4.110;2023-07-29T17:43:45;101389.28;;;27.92;100.00
73240;BME280;61452;40.054;4.110;2023-07-29T17:48:49;101399.22;;;27.91;100.00
73240;BME280;61452;40.054;4.110;2023-07-29T17:53:52;101410.50;;;27.95;100.00
73240;BME280;61452;40.054;4.110;2023-07-29T17:58:54;101408.47;;;27.97;100.00
73240;BME280;61452;40.054;4.110;2023-07-29T18:03:56;101413.22;;;27.95;100.00
73240;BME280;61452;40.054;4.110;2023-07-29T18:08:58;101423.81;;;27.96;100.00
73240;BME280;61452;40.054;4.110;2023-07-29T18:14:01;101429.88;;;27.98;100.00
73240;BME280;61452;40.054;4.110;2023-07-29T18:19:03;101440.66;;;27.98;100.00
73240;BME280;61452;40.054;4.110;2023-07-29T18:24:05;101435.28;;;27.98;100.00
73240;BME280;61452;40.054;4.110;2023-07-29T18:29:07;101438.81;;;27.99;100.00
73240;BME280;61452;40.054;4.110;2023-07-29T18:34:10;101440.50;;;28.00;100.00
73240;BME280;61452;40.054;4.110;2023-07-29T18:39:12;101435.09;;;28.00;100.00
73240;BME280;61452;40.054;4.110;2023-07-29T18:44:14;101438.50;;;28.02;100.00
73240;BME280;61452;40.054;4.110;2023-07-29T18:49:16;101445.91;;;28.00;100.00
73240;BME280;61452;40.054;4.110;2023-07-29T18:54:18;101452.31;;;27.99;100.00
73240;BME280;61452;40.054;4.110;2023-07-29T18:59:22;101462.94;;;28.00;100.00
73240;BME280;61452;40.054;4.110;2023-07-29T19:04:24;101469.16;;;28.01;100.00
73240;BME280;61452;40.054;4.110;2023-07-29T19:09:26;101470.00;;;28.01;100.00
73240;BME280;61452;40.054;4.110;2023-07-29T19:14:29;101472.72;;;28.01;100.00
73240;BME280;61452;40.054;4.110;2023-07-29T19:19:31;101476.41;;;28.00;100.00
73240;BME280;61452;40.054;4.110;2023-07-29T19:24:33;101479.97;;;28.01;100.00
73240;BME280;61452;40.054;4.110;2023-07-29T19:29:36;101495.28;;;28.00;100.00
73240;BME280;61452;40.054;4.110;2023-07-29T19:34:38;101497.84;;;28.02;100.00
73240;BME280;61452;40.054;4.110;2023-07-29T19:39:41;101507.78;;;28.01;100.00
73240;BME280;61452;40.054;4.110;2023-07-29T19:44:43;101517.53;;;28.02;100.00
73240;BME280;61452;40.054;4.110;2023-07-29T19:49:45;101521.91;;;28.03;100.00
73240;BME280;61452;40.054;4.110;2023-07-29T19:54:47;101519.22;;;28.03;100.00
73240;BME280;61452;40.054;4.110;2023-07-29T19:59:50;101530.69;;;28.05;100.00
73240;BME280;61452;40.054;4.110;2023-07-29T20:04:52;101533.38;;;28.05;100.00
73240;BME280;61452;40.054;4.110;2023-07-29T20:09:56;101521.75;;;28.05;100.00
73240;BME280;61452;40.054;4.110;2023-07-29T20:14:59;101529.69;;;28.06;100.00
73240;BME280;61452;40.054;4.110;2023-07-29T20:20:05;101519.91;;;28.05;100.00
73240;BME280;61452;40.054;4.110;2023-07-29T20:25:08;101531.53;;;28.06;100.00
73240;BME280;61452;40.054;4.110;2023-07-29T20:30:10;101533.22;;;28.07;100.00
73240;BME280;61452;40.054;4.110;2023-07-29T20:35:12;101544.00;;;28.07;100.00
73240;BME280;61452;40.054;4.110;2023-07-29T20:40:14;101530.84;;;28.04;100.00
73240;BME280;61452;40.054;4.110;2023-07-29T20:45:17;101536.41;;;28.02;100.00
73240;BME280;61452;40.054;4.110;2023-07-29T20:50:19;101538.94;;;28.04;100.00
73240;BME280;61452;40.054;4.110;2023-07-29T20:55:21;101526.31;;;28.04;100.00
73240;BME280;61452;40.054;4.110;2023-07-29T21:00:24;101530.69;;;28.05;100.00
73240;BME280;61452;40.054;4.110;2023-07-29T21:05:26;101528.16;;;28.04;100.00
73240;BME280;61452;40.054;4.110;2023-07-29T21:10:30;101527.31;;;28.03;100.00
73240;BME280;61452;40.054;4.110;2023-07-29T21:15:32;101539.78;;;28.04;100.00
73240;BME280;61452;40.054;4.110;2023-07-29T21:20:34;101542.31;;;28.06;100.00
73240;BME280;61452;40.054;4.110;2023-07-29T21:25:36;101526.13;;;28.06;100.00
73240;BME280;61452;40.054;4.110;2023-07-29T21:30:39;101524.44;;;28.05;100.00
73240;BME280;61452;40.054;4.110;2023-07-29T21:35:41;101525.63;;;28.02;100.00
73240;BME280;61452;40.054;4.110;2023-07-29T21:40:47;101532.69;;;28.03;100.00
73240;BME280;61452;40.054;4.110;2023-07-29T21:45:50;101542.66;;;28.03;100.00
73240;BME280;61452;40.054;4.110;2023-07-29T21:50:53;101548.41;;;28.00;100.00
73240;BME280;61452;40.054;4.110;2023-07-29T21:56:00;101549.25;;;28.00;100.00
73240;BME280;61452;40.054;4.110;2023-07-29T22:01:03;101569.97;;;28.00;100.00
73240;BME280;61452;40.054;4.110;2023-07-29T22:06:05;101558.66;;;27.96;100.00
73240;BME280;61452;40.054;4.110;2023-07-29T22:11:08;101572.16;;;27.96;100.00
73240;BME280;61452;40.054;4.110;2023-07-29T22:16:13;101561.38;;;27.96;100.00
73240;BME280;61452;40.054;4.110;2023-07-29T22:21:16;101567.59;;;27.97;100.00
73240;BME280;61452;40.054;4.110;2023-07-29T22:26:18;101569.28;;;27.98;100.00
73240;BME280;61452;40.054;4.110;2023-07-29T22:31:20;101566.59;;;27.98;100.00
73240;BME280;61452;40.054;4.110;2023-07-29T22:36:22;101569.28;;;27.98;100.00
73240;BME280;61452;40.054;4.110;2023-07-29T22:41:25;101568.63;;;27.96;100.00
73240;BME280;61452;40.054;4.110;2023-07-29T22:46:27;101566.75;;;27.96;100.00
73240;BME280;61452;40.054;4.110;2023-07-29T22:51:30;101553.94;;;27.98;100.00
73240;BME280;61452;40.054;4.110;2023-07-29T22:56:32;101565.75;;;27.97;100.00
73240;BME280;61452;40.054;4.110;2023-07-29T23:01:34;101563.25;;;27.96;100.00
73240;BME280;61452;40.054;4.110;2023-07-29T23:06:36;101563.25;;;27.96;100.00
73240;BME280;61452;40.054;4.110;2023-07-29T23:11:39;101560.72;;;27.94;100.00
73240;BME280;61452;40.054;4.110;2023-07-29T23:16:41;101561.38;;;27.96;100.00
73240;BME280;61452;40.054;4.110;2023-07-29T23:21:43;101567.44;;;27.98;100.00
73240;BME280;61452;40.054;4.110;2023-07-29T23:26:46;101593.91;;;28.03;100.00
73240;BME280;61452;40.054;4.110;2023-07-29T23:31:50;101628.47;;;27.99;100.00
73240;BME280;61452;40.054;4.110;2023-07-29T23:36:53;101630.31;;;27.99;100.00
73240;BME280;61452;40.054;4.110;2023-07-29T23:41:55;101637.41;;;28.00;100.00
73240;BME280;61452;40.054;4.110;2023-07-29T23:46:57;101632.34;;;27.97;100.00
73240;BME280;61452;40.054;4.110;2023-07-29T23:51:59;101626.94;;;27.97;100.00
73240;BME280;61452;40.054;4.110;2023-07-29T23:57:01;101631.16;;;27.99;100.00
